createdAt,value
2017-04-03T00:00:13.577Z,0
2017-04-03T00:01:13.524Z,0
2017-04-03T00:02:13.192Z,0
2017-04-03T00:03:13.689Z,0
2017-04-03T00:04:13.479Z,0
2017-04-03T00:05:13.149Z,0
2017-04-03T00:06:12.830Z,0
2017-04-03T00:07:12.814Z,0
2017-04-03T00:08:13.154Z,0
2017-04-03T00:09:13.419Z,0
2017-04-03T00:10:13.417Z,0
2017-04-03T00:11:13.390Z,0
2017-04-03T00:12:13.108Z,0
2017-04-03T00:13:12.727Z,0
2017-04-03T00:14:13.359Z,0
2017-04-03T00:15:12.686Z,0
2017-04-03T00:16:12.674Z,0
2017-04-03T00:17:13.286Z,0
2017-04-03T00:18:12.641Z,0
2017-04-03T00:19:13.257Z,0
2017-04-03T00:20:12.513Z,0
2017-04-03T00:21:12.595Z,0
2017-04-03T00:22:13.207Z,0
2017-04-03T00:23:13.192Z,0
2017-04-03T00:24:13.182Z,0
2017-04-03T00:25:12.534Z,0
2017-04-03T00:26:12.521Z,0
2017-04-03T00:27:13.132Z,0
2017-04-03T00:28:12.512Z,0
2017-04-03T00:29:12.478Z,0
2017-04-03T00:30:12.785Z,0
2017-04-03T00:31:12.766Z,0
2017-04-03T00:32:13.072Z,0
2017-04-03T00:33:12.721Z,0
2017-04-03T00:34:12.720Z,0
2017-04-03T00:35:12.408Z,0
2017-04-03T00:36:12.993Z,0
2017-04-03T00:37:12.974Z,0
2017-04-03T00:38:12.652Z,0
2017-04-03T00:39:12.633Z,0
2017-04-03T00:40:12.627Z,0
2017-04-03T00:41:12.603Z,0
2017-04-03T00:42:12.593Z,0
2017-04-03T00:43:12.894Z,0
2017-04-03T00:44:12.575Z,0
2017-04-03T00:45:12.765Z,0
2017-04-03T00:46:12.844Z,0
2017-04-03T00:47:12.514Z,0
2017-04-03T00:48:12.822Z,0
2017-04-03T00:49:12.802Z,0
2017-04-03T00:50:12.464Z,0
2017-04-03T00:51:12.770Z,0
2017-04-03T00:52:12.131Z,0
2017-04-03T00:53:12.425Z,0
2017-04-03T00:54:12.404Z,0
2017-04-03T00:55:12.403Z,0
2017-04-03T00:56:12.683Z,0
2017-04-03T00:57:12.669Z,0
2017-04-03T00:58:12.663Z,0
2017-04-03T00:59:12.637Z,0
2017-04-03T01:00:11.688Z,0
2017-04-03T01:01:12.613Z,0
2017-04-03T01:02:12.601Z,0
2017-04-03T01:03:12.584Z,0
2017-04-03T01:04:12.567Z,0
2017-04-03T01:05:12.558Z,0
2017-04-03T01:06:12.225Z,0
2017-04-03T01:07:12.544Z,0
2017-04-03T01:08:12.195Z,0
2017-04-03T01:09:12.490Z,0
2017-04-03T01:10:12.166Z,0
2017-04-03T01:11:12.468Z,0
2017-04-03T01:12:12.451Z,0
2017-04-03T01:13:12.438Z,0
2017-04-03T01:14:12.102Z,0
2017-04-03T01:15:12.405Z,0
2017-04-03T01:16:12.396Z,0
2017-04-03T01:17:12.389Z,0
2017-04-03T01:18:12.362Z,0
2017-04-03T01:19:12.343Z,0
2017-04-03T01:20:12.013Z,0
2017-04-03T01:21:12.320Z,0
2017-04-03T01:22:12.302Z,0
2017-04-03T01:23:11.348Z,0
2017-04-03T01:24:11.952Z,0
2017-04-03T01:25:12.255Z,0
2017-04-03T01:26:11.925Z,0
2017-04-03T01:27:12.234Z,0
2017-04-03T01:28:12.211Z,0
2017-04-03T01:29:12.191Z,0
2017-04-03T01:30:12.178Z,0
2017-04-03T01:31:12.163Z,0
2017-04-03T01:32:12.147Z,0
2017-04-03T01:33:11.829Z,0
2017-04-03T01:34:11.803Z,0
2017-04-03T01:35:12.107Z,0
2017-04-03T01:36:12.091Z,0
2017-04-03T01:37:12.078Z,0
2017-04-03T01:38:11.749Z,0
2017-04-03T01:39:12.047Z,0
2017-04-03T01:40:11.719Z,0
2017-04-03T01:41:11.717Z,0
2017-04-03T01:42:11.699Z,0
2017-04-03T01:43:11.671Z,0
2017-04-03T01:44:11.969Z,0
2017-04-03T01:45:11.951Z,0
2017-04-03T01:46:11.944Z,0
2017-04-03T01:47:11.932Z,0
2017-04-03T01:48:11.602Z,0
2017-04-03T01:49:11.906Z,0
2017-04-03T01:50:11.581Z,0
2017-04-03T01:51:11.556Z,0
2017-04-03T01:52:11.854Z,0
2017-04-03T01:53:11.842Z,0
2017-04-03T01:54:11.883Z,0
2017-04-03T01:55:11.859Z,0
2017-04-03T01:56:11.169Z,0
2017-04-03T01:57:11.773Z,0
2017-04-03T01:58:11.754Z,0
2017-04-03T01:59:11.745Z,0
2017-04-03T02:00:11.413Z,0
2017-04-03T02:01:11.720Z,0
2017-04-03T02:02:11.737Z,0
2017-04-03T02:03:11.683Z,0
2017-04-03T02:04:11.680Z,0
2017-04-03T02:05:11.345Z,0
2017-04-03T02:06:11.082Z,0
2017-04-03T02:07:11.624Z,0
2017-04-03T02:08:11.310Z,0
2017-04-03T02:09:10.675Z,0
2017-04-03T02:10:11.582Z,0
2017-04-03T02:11:11.615Z,0
2017-04-03T02:12:10.937Z,0
2017-04-03T02:13:11.246Z,0
2017-04-03T02:14:11.209Z,0
2017-04-03T02:15:11.216Z,0
2017-04-03T02:16:11.181Z,0
2017-04-03T02:17:10.882Z,0
2017-04-03T02:18:11.147Z,0
2017-04-03T02:19:11.140Z,0
2017-04-03T02:20:11.439Z,0
2017-04-03T02:21:11.430Z,0
2017-04-03T02:22:11.414Z,0
2017-04-03T02:23:11.407Z,0
2017-04-03T02:24:11.379Z,0
2017-04-03T02:25:11.421Z,0
2017-04-03T02:26:11.332Z,0
2017-04-03T02:27:11.325Z,0
2017-04-03T02:28:10.700Z,0
2017-04-03T02:29:10.994Z,0
2017-04-03T02:30:11.327Z,0
2017-04-03T02:31:10.640Z,0
2017-04-03T02:32:10.622Z,0
2017-04-03T02:33:10.922Z,0
2017-04-03T02:34:10.906Z,0
2017-04-03T02:35:11.204Z,0
2017-04-03T02:36:10.880Z,0
2017-04-03T02:37:11.178Z,0
2017-04-03T02:38:10.847Z,0
2017-04-03T02:39:11.147Z,0
2017-04-03T02:40:11.141Z,0
2017-04-03T02:41:11.126Z,0
2017-04-03T02:42:10.476Z,0
2017-04-03T02:43:11.081Z,0
2017-04-03T02:44:10.817Z,0
2017-04-03T02:45:10.993Z,0
2017-04-03T02:46:11.101Z,0
2017-04-03T02:47:11.048Z,0
2017-04-03T02:48:10.723Z,0
2017-04-03T02:49:10.680Z,0
2017-04-03T02:50:10.681Z,0
2017-04-03T02:51:10.651Z,0
2017-04-03T02:52:10.336Z,0
2017-04-03T02:53:10.955Z,0
2017-04-03T02:54:11.030Z,0
2017-04-03T02:55:10.923Z,0
2017-04-03T02:56:10.901Z,0
2017-04-03T02:57:10.564Z,0
2017-04-03T02:58:10.856Z,0
2017-04-03T02:59:10.850Z,0
2017-04-03T03:00:10.823Z,0
2017-04-03T03:01:10.858Z,0
2017-04-03T03:02:10.478Z,0
2017-04-03T03:03:10.776Z,0
2017-04-03T03:04:10.762Z,0
2017-04-03T03:05:10.434Z,0
2017-04-03T03:06:10.742Z,0
2017-04-03T03:07:10.406Z,0
2017-04-03T03:08:10.707Z,0
2017-04-03T03:09:10.708Z,0
2017-04-03T03:10:10.044Z,0
2017-04-03T03:11:10.707Z,0
2017-04-03T03:12:10.655Z,0
2017-04-03T03:13:10.638Z,0
2017-04-03T03:14:10.638Z,0
2017-04-03T03:15:10.292Z,0
2017-04-03T03:16:10.273Z,0
2017-04-03T03:17:10.250Z,0
2017-04-03T03:18:10.554Z,0
2017-04-03T03:19:10.221Z,0
2017-04-03T03:20:10.521Z,0
2017-04-03T03:21:10.206Z,0
2017-04-03T03:22:10.181Z,0
2017-04-03T03:23:10.162Z,0
2017-04-03T03:24:10.143Z,0
2017-04-03T03:25:10.448Z,0
2017-04-03T03:26:10.116Z,0
2017-04-03T03:27:10.093Z,0
2017-04-03T03:28:10.401Z,0
2017-04-03T03:29:10.378Z,0
2017-04-03T03:30:10.369Z,0
2017-04-03T03:31:10.356Z,0
2017-04-03T03:32:10.336Z,0
2017-04-03T03:33:10.318Z,0
2017-04-03T03:34:10.038Z,0
2017-04-03T03:35:09.979Z,0
2017-04-03T03:36:10.275Z,0
2017-04-03T03:37:09.632Z,0
2017-04-03T03:38:10.440Z,0
2017-04-03T03:39:10.228Z,0
2017-04-03T03:40:09.911Z,0
2017-04-03T03:41:10.193Z,0
2017-04-03T03:42:10.177Z,0
2017-04-03T03:43:10.170Z,0
2017-04-03T03:44:10.152Z,0
2017-04-03T03:45:10.146Z,0
2017-04-03T03:46:10.112Z,0
2017-04-03T03:47:10.122Z,0
2017-04-03T03:48:10.101Z,0
2017-04-03T03:49:10.079Z,0
2017-04-03T03:50:10.064Z,0
2017-04-03T03:51:10.051Z,0
2017-04-03T03:52:09.402Z,0
2017-04-03T03:53:09.697Z,0
2017-04-03T03:54:09.700Z,0
2017-04-03T03:55:09.979Z,0
2017-04-03T03:56:09.963Z,0
2017-04-03T03:57:09.959Z,0
2017-04-03T03:58:09.934Z,0
2017-04-03T03:59:09.621Z,0
2017-04-03T04:00:09.905Z,0
2017-04-03T04:01:09.607Z,0
2017-04-03T04:02:09.560Z,0
2017-04-03T04:03:09.937Z,0
2017-04-03T04:04:09.528Z,0
2017-04-03T04:05:09.822Z,0
2017-04-03T04:06:09.818Z,0
2017-04-03T04:07:09.796Z,0
2017-04-03T04:08:09.789Z,0
2017-04-03T04:09:09.773Z,0
2017-04-03T04:10:09.751Z,0
2017-04-03T04:11:09.733Z,0
2017-04-03T04:12:09.754Z,0
2017-04-03T04:13:09.397Z,0
2017-04-03T04:14:09.693Z,0
2017-04-03T04:15:09.050Z,0
2017-04-03T04:16:09.654Z,0
2017-04-03T04:17:09.646Z,0
2017-04-03T04:18:09.368Z,0
2017-04-03T04:19:09.295Z,0
2017-04-03T04:20:09.593Z,0
2017-04-03T04:21:09.584Z,0
2017-04-03T04:22:09.564Z,0
2017-04-03T04:23:09.547Z,0
2017-04-03T04:24:09.217Z,0
2017-04-03T04:25:09.527Z,0
2017-04-03T04:26:09.504Z,0
2017-04-03T04:27:09.178Z,0
2017-04-03T04:28:09.165Z,0
2017-04-03T04:29:09.461Z,0
2017-04-03T04:30:09.129Z,0
2017-04-03T04:31:09.111Z,0
2017-04-03T04:32:09.411Z,0
2017-04-03T04:33:09.403Z,0
2017-04-03T04:34:09.067Z,0
2017-04-03T04:35:09.362Z,0
2017-04-03T04:36:08.728Z,0
2017-04-03T04:37:09.338Z,0
2017-04-03T04:38:09.321Z,0
2017-04-03T04:39:09.312Z,0
2017-04-03T04:40:08.037Z,0
2017-04-03T04:41:09.271Z,0
2017-04-03T04:42:09.307Z,0
2017-04-03T04:43:09.242Z,0
2017-04-03T04:44:08.925Z,0
2017-04-03T04:45:09.615Z,0
2017-04-03T04:46:09.211Z,0
2017-04-03T04:47:09.187Z,0
2017-04-03T04:48:08.239Z,0
2017-04-03T04:49:09.213Z,0
2017-04-03T04:50:08.825Z,0
2017-04-03T04:51:09.124Z,0
2017-04-03T04:52:08.793Z,0
2017-04-03T04:53:08.495Z,0
2017-04-03T04:54:09.084Z,0
2017-04-03T04:55:09.080Z,0
2017-04-03T04:56:09.054Z,0
2017-04-03T04:57:09.031Z,0
2017-04-03T04:58:09.009Z,0
2017-04-03T04:59:09.049Z,0
2017-04-03T05:00:08.676Z,0
2017-04-03T05:01:08.975Z,0
2017-04-03T05:02:08.947Z,0
2017-04-03T05:03:09.016Z,0
2017-04-03T05:04:08.316Z,0
2017-04-03T05:05:08.936Z,0
2017-04-03T05:06:08.893Z,0
2017-04-03T05:07:08.565Z,0
2017-04-03T05:08:08.551Z,0
2017-04-03T05:09:08.835Z,0
2017-04-03T05:10:08.513Z,0
2017-04-03T05:11:08.809Z,0
2017-04-03T05:12:08.479Z,0
2017-04-03T05:13:08.776Z,0
2017-04-03T05:14:08.463Z,0
2017-04-03T05:15:08.446Z,0
2017-04-03T05:16:08.417Z,0
2017-04-03T05:17:08.719Z,0
2017-04-03T05:18:08.716Z,0
2017-04-03T05:19:08.369Z,0
2017-04-03T05:20:08.675Z,0
2017-04-03T05:21:08.655Z,0
2017-04-03T05:22:08.675Z,0
2017-04-03T05:23:08.308Z,5
2017-04-03T05:24:08.624Z,5
2017-04-03T05:25:08.308Z,5
2017-04-03T05:26:08.277Z,5
2017-04-03T05:27:08.563Z,5
2017-04-03T05:28:08.237Z,5
2017-04-03T05:29:08.528Z,5
2017-04-03T05:30:08.555Z,5
2017-04-03T05:31:08.197Z,5
2017-04-03T05:32:08.196Z,5
2017-04-03T05:33:08.465Z,5
2017-04-03T05:34:08.154Z,5
2017-04-03T05:35:08.448Z,5
2017-04-03T05:36:08.451Z,5
2017-04-03T05:37:08.113Z,5
2017-04-03T05:38:08.408Z,5
2017-04-03T05:39:08.095Z,10
2017-04-03T05:40:08.077Z,10
2017-04-03T05:41:08.069Z,10
2017-04-03T05:42:08.007Z,10
2017-04-03T05:43:08.340Z,10
2017-04-03T05:44:07.976Z,10
2017-04-03T05:45:07.957Z,10
2017-04-03T05:46:07.950Z,10
2017-04-03T05:47:08.249Z,10
2017-04-03T05:48:08.234Z,10
2017-04-03T05:49:08.222Z,10
2017-04-03T05:50:08.199Z,10
2017-04-03T05:51:07.866Z,10
2017-04-03T05:52:07.893Z,10
2017-04-03T05:53:08.156Z,10
2017-04-03T05:54:08.182Z,10
2017-04-03T05:55:08.126Z,10
2017-04-03T05:56:07.807Z,10
2017-04-03T05:57:08.089Z,10
2017-04-03T05:58:08.091Z,15
2017-04-03T05:59:08.071Z,15
2017-04-03T06:00:07.414Z,15
2017-04-03T06:01:08.023Z,15
2017-04-03T06:02:08.019Z,15
2017-04-03T06:03:07.993Z,15
2017-04-03T06:04:07.663Z,15
2017-04-03T06:05:07.656Z,15
2017-04-03T06:06:07.949Z,15
2017-04-03T06:07:07.923Z,20
2017-04-03T06:08:07.597Z,20
2017-04-03T06:09:07.581Z,20
2017-04-03T06:10:07.567Z,20
2017-04-03T06:11:07.551Z,20
2017-04-03T06:12:07.535Z,20
2017-04-03T06:13:07.834Z,20
2017-04-03T06:14:07.513Z,20
2017-04-03T06:15:07.800Z,20
2017-04-03T06:16:07.473Z,20
2017-04-03T06:17:07.460Z,20
2017-04-03T06:18:07.441Z,20
2017-04-03T06:19:07.783Z,25
2017-04-03T06:20:07.411Z,25
2017-04-03T06:21:07.712Z,25
2017-04-03T06:22:07.697Z,25
2017-04-03T06:23:07.693Z,25
2017-04-03T06:24:07.566Z,30
2017-04-03T06:25:07.904Z,25
2017-04-03T06:26:07.640Z,30
2017-04-03T06:27:07.617Z,30
2017-04-03T06:28:06.984Z,30
2017-04-03T06:29:07.593Z,30
2017-04-03T06:30:07.577Z,30
2017-04-03T06:31:07.553Z,30
2017-04-03T06:32:07.546Z,30
2017-04-03T06:33:07.538Z,30
2017-04-03T06:34:07.505Z,30
2017-04-03T06:35:07.704Z,30
2017-04-03T06:36:06.554Z,30
2017-04-03T06:37:07.485Z,30
2017-04-03T06:38:07.133Z,35
2017-04-03T06:39:07.432Z,40
2017-04-03T06:40:07.430Z,45
2017-04-03T06:41:07.416Z,45
2017-04-03T06:42:07.076Z,45
2017-04-03T06:43:07.428Z,40
2017-04-03T06:44:07.568Z,40
2017-04-03T06:45:07.338Z,45
2017-04-03T06:46:07.015Z,45
2017-04-03T06:47:07.515Z,40
2017-04-03T06:48:06.990Z,40
2017-04-03T06:49:06.651Z,40
2017-04-03T06:50:07.275Z,35
2017-04-03T06:51:07.254Z,35
2017-04-03T06:52:07.237Z,35
2017-04-03T06:53:06.962Z,40
2017-04-03T06:54:07.280Z,40
2017-04-03T06:55:07.178Z,45
2017-04-03T06:56:07.174Z,45
2017-04-03T06:57:07.153Z,50
2017-04-03T06:58:06.833Z,50
2017-04-03T06:59:07.120Z,55
2017-04-03T07:00:06.811Z,55
2017-04-03T07:01:07.098Z,55
2017-04-03T07:02:07.079Z,55
2017-04-03T07:03:07.068Z,55
2017-04-03T07:04:07.136Z,55
2017-04-03T07:05:07.057Z,55
2017-04-03T07:06:07.022Z,55
2017-04-03T07:07:06.674Z,55
2017-04-03T07:08:06.667Z,55
2017-04-03T07:09:06.964Z,55
2017-04-03T07:10:06.955Z,55
2017-04-03T07:11:06.931Z,55
2017-04-03T07:12:06.914Z,60
2017-04-03T07:13:06.285Z,60
2017-04-03T07:14:06.914Z,60
2017-04-03T07:15:06.874Z,65
2017-04-03T07:16:06.857Z,65
2017-04-03T07:17:06.783Z,65
2017-04-03T07:18:06.822Z,65
2017-04-03T07:19:06.825Z,65
2017-04-03T07:20:06.791Z,60
2017-04-03T07:21:06.832Z,60
2017-04-03T07:22:06.469Z,60
2017-04-03T07:23:06.746Z,60
2017-04-03T07:24:06.932Z,60
2017-04-03T07:25:06.735Z,65
2017-04-03T07:26:06.437Z,65
2017-04-03T07:27:06.690Z,65
2017-04-03T07:28:06.716Z,65
2017-04-03T07:29:06.701Z,70
2017-04-03T07:30:06.643Z,70
2017-04-03T07:31:06.625Z,75
2017-04-03T07:32:06.312Z,75
2017-04-03T07:33:06.608Z,75
2017-04-03T07:34:06.641Z,75
2017-04-03T07:35:06.559Z,80
2017-04-03T07:36:05.964Z,80
2017-04-03T07:37:06.220Z,85
2017-04-03T07:38:06.515Z,85
2017-04-03T07:39:06.501Z,80
2017-04-03T07:40:06.486Z,75
2017-04-03T07:41:06.470Z,75
2017-04-03T07:42:06.462Z,75
2017-04-03T07:43:06.128Z,80
2017-04-03T07:44:06.181Z,80
2017-04-03T07:45:06.476Z,75
2017-04-03T07:46:06.433Z,75
2017-04-03T07:47:06.095Z,70
2017-04-03T07:48:06.371Z,75
2017-04-03T07:49:06.350Z,75
2017-04-03T07:50:06.334Z,75
2017-04-03T07:51:06.015Z,75
2017-04-03T07:52:05.993Z,75
2017-04-03T07:53:06.496Z,75
2017-04-03T07:54:06.275Z,75
2017-04-03T07:55:06.316Z,70
2017-04-03T07:56:06.338Z,70
2017-04-03T07:57:06.285Z,70
2017-04-03T07:58:05.933Z,70
2017-04-03T07:59:06.412Z,70
2017-04-03T08:00:20.449Z,70
2017-04-03T08:01:06.168Z,70
2017-04-03T08:02:06.147Z,70
2017-04-03T08:03:05.824Z,75
2017-04-03T08:04:05.806Z,80
2017-04-03T08:05:06.116Z,80
2017-04-03T08:06:05.464Z,85
2017-04-03T08:07:06.092Z,85
2017-04-03T08:08:06.311Z,85
2017-04-03T08:09:06.102Z,85
2017-04-03T08:10:06.038Z,90
2017-04-03T08:11:06.064Z,90
2017-04-03T08:12:06.063Z,90
2017-04-03T08:13:05.985Z,90
2017-04-03T08:14:05.998Z,95
2017-04-03T08:15:05.640Z,95
2017-04-03T08:16:05.964Z,100
2017-04-03T08:17:05.982Z,100
2017-04-03T08:18:05.332Z,95
2017-04-03T08:19:05.899Z,95
2017-04-03T08:20:05.254Z,95
2017-04-03T08:21:05.869Z,95
2017-04-03T08:22:05.964Z,95
2017-04-03T08:23:05.877Z,95
2017-04-03T08:24:05.824Z,95
2017-04-03T08:25:05.225Z,95
2017-04-03T08:26:05.799Z,100
2017-04-03T08:27:05.472Z,100
2017-04-03T08:28:05.461Z,100
2017-04-03T08:29:06.142Z,100
2017-04-03T08:30:05.748Z,100
2017-04-03T08:31:05.413Z,95
2017-04-03T08:32:05.390Z,95
2017-04-03T08:33:05.068Z,95
2017-04-03T08:34:05.374Z,90
2017-04-03T08:35:05.348Z,90
2017-04-03T08:36:05.644Z,90
2017-04-03T08:37:05.331Z,95
2017-04-03T08:38:05.614Z,100
2017-04-03T08:39:05.292Z,100
2017-04-03T08:40:05.282Z,100
2017-04-03T08:41:05.574Z,105
2017-04-03T08:42:05.247Z,115
2017-04-03T08:43:05.231Z,120
2017-04-03T08:44:05.214Z,115
2017-04-03T08:45:05.204Z,110
2017-04-03T08:46:05.711Z,105
2017-04-03T08:47:05.223Z,100
2017-04-03T08:48:05.164Z,95
2017-04-03T08:49:05.468Z,100
2017-04-03T08:50:05.140Z,100
2017-04-03T08:51:05.118Z,100
2017-04-03T08:52:05.121Z,100
2017-04-03T08:53:05.084Z,100
2017-04-03T08:54:05.071Z,100
2017-04-03T08:55:05.375Z,100
2017-04-03T08:56:05.043Z,100
2017-04-03T08:57:05.339Z,100
2017-04-03T08:58:05.323Z,100
2017-04-03T08:59:05.316Z,100
2017-04-03T09:00:05.024Z,100
2017-04-03T09:01:05.281Z,100
2017-04-03T09:02:04.691Z,100
2017-04-03T09:03:04.935Z,100
2017-04-03T09:04:05.236Z,105
2017-04-03T09:05:04.944Z,110
2017-04-03T09:06:04.938Z,115
2017-04-03T09:07:05.252Z,115
2017-04-03T09:08:05.282Z,120
2017-04-03T09:09:05.169Z,125
2017-04-03T09:10:05.147Z,130
2017-04-03T09:11:05.175Z,130
2017-04-03T09:12:05.131Z,135
2017-04-03T09:13:05.106Z,135
2017-04-03T09:14:05.096Z,140
2017-04-03T09:15:05.075Z,140
2017-04-03T09:16:05.071Z,145
2017-04-03T09:17:04.747Z,150
2017-04-03T09:18:05.041Z,150
2017-04-03T09:19:04.707Z,155
2017-04-03T09:20:05.005Z,160
2017-04-03T09:21:05.000Z,160
2017-04-03T09:22:04.990Z,160
2017-04-03T09:23:04.649Z,160
2017-04-03T09:24:04.994Z,160
2017-04-03T09:25:04.936Z,160
2017-04-03T09:26:04.930Z,155
2017-04-03T09:27:04.924Z,155
2017-04-03T09:28:04.902Z,150
2017-04-03T09:29:04.929Z,155
2017-04-03T09:30:04.870Z,160
2017-04-03T09:31:04.889Z,165
2017-04-03T09:32:04.868Z,170
2017-04-03T09:33:04.532Z,175
2017-04-03T09:34:04.527Z,180
2017-04-03T09:35:04.492Z,185
2017-04-03T09:36:04.485Z,190
2017-04-03T09:37:04.774Z,195
2017-04-03T09:38:04.760Z,195
2017-04-03T09:39:04.439Z,195
2017-04-03T09:40:04.739Z,200
2017-04-03T09:41:04.443Z,205
2017-04-03T09:42:04.437Z,210
2017-04-03T09:43:04.767Z,220
2017-04-03T09:44:04.742Z,215
2017-04-03T09:45:04.390Z,210
2017-04-03T09:46:04.656Z,205
2017-04-03T09:47:04.636Z,200
2017-04-03T09:48:04.630Z,195
2017-04-03T09:49:04.614Z,195
2017-04-03T09:50:04.606Z,190
2017-04-03T09:51:04.592Z,195
2017-04-03T09:52:04.303Z,195
2017-04-03T09:53:04.701Z,190
2017-04-03T09:54:04.665Z,195
2017-04-03T09:55:04.258Z,180
2017-04-03T09:56:04.540Z,175
2017-04-03T09:57:04.512Z,175
2017-04-03T09:58:04.486Z,175
2017-04-03T09:59:04.475Z,175
2017-04-03T10:00:04.472Z,175
2017-04-03T10:01:04.448Z,180
2017-04-03T10:02:04.461Z,185
2017-04-03T10:03:04.453Z,190
2017-04-03T10:04:03.816Z,195
2017-04-03T10:05:04.410Z,205
2017-04-03T10:06:03.778Z,215
2017-04-03T10:07:04.082Z,235
2017-04-03T10:08:04.095Z,250
2017-04-03T10:09:04.390Z,260
2017-04-03T10:10:04.048Z,250
2017-04-03T10:11:04.070Z,240
2017-04-03T10:12:04.350Z,230
2017-04-03T10:13:04.336Z,225
2017-04-03T10:14:04.318Z,230
2017-04-03T10:15:04.289Z,230
2017-04-03T10:16:03.949Z,225
2017-04-03T10:17:04.242Z,215
2017-04-03T10:18:04.221Z,205
2017-04-03T10:19:03.917Z,195
2017-04-03T10:20:04.222Z,190
2017-04-03T10:21:03.901Z,185
2017-04-03T10:22:04.178Z,185
2017-04-03T10:23:03.858Z,185
2017-04-03T10:24:03.877Z,190
2017-04-03T10:25:04.152Z,200
2017-04-03T10:26:04.128Z,215
2017-04-03T10:27:04.109Z,230
2017-04-03T10:28:04.097Z,240
2017-04-03T10:29:03.771Z,250
2017-04-03T10:30:04.087Z,250
2017-04-03T10:31:03.757Z,255
2017-04-03T10:32:03.739Z,250
2017-04-03T10:33:03.409Z,240
2017-04-03T10:34:04.026Z,230
2017-04-03T10:35:04.016Z,220
2017-04-03T10:36:03.685Z,220
2017-04-03T10:37:03.683Z,220
2017-04-03T10:38:03.348Z,225
2017-04-03T10:39:03.649Z,225
2017-04-03T10:40:03.642Z,225
2017-04-03T10:41:03.308Z,220
2017-04-03T10:42:03.995Z,220
2017-04-03T10:43:03.629Z,215
2017-04-03T10:44:03.599Z,215
2017-04-03T10:45:03.911Z,215
2017-04-03T10:46:03.778Z,215
2017-04-03T10:47:03.876Z,220
2017-04-03T10:48:03.537Z,225
2017-04-03T10:49:03.840Z,230
2017-04-03T10:50:03.896Z,230
2017-04-03T10:51:03.812Z,230
2017-04-03T10:52:03.800Z,230
2017-04-03T10:53:03.791Z,230
2017-04-03T10:54:03.471Z,235
2017-04-03T10:55:03.772Z,240
2017-04-03T10:56:03.467Z,250
2017-04-03T10:57:03.761Z,265
2017-04-03T10:58:03.445Z,275
2017-04-03T10:59:03.730Z,270
2017-04-03T11:00:03.769Z,265
2017-04-03T11:01:03.088Z,270
2017-04-03T11:02:03.909Z,285
2017-04-03T11:03:03.404Z,300
2017-04-03T11:04:03.703Z,310
2017-04-03T11:05:03.656Z,320
2017-04-03T11:06:03.327Z,325
2017-04-03T11:07:03.345Z,335
2017-04-03T11:08:03.655Z,345
2017-04-03T11:09:03.302Z,370
2017-04-03T11:10:03.290Z,445
2017-04-03T11:11:02.653Z,395
2017-04-03T11:12:03.130Z,390
2017-04-03T11:13:03.590Z,370
2017-04-03T11:14:03.559Z,350
2017-04-03T11:15:03.228Z,345
2017-04-03T11:16:03.537Z,335
2017-04-03T11:17:03.541Z,325
2017-04-03T11:18:03.203Z,325
2017-04-03T11:19:03.388Z,335
2017-04-03T11:20:03.533Z,345
2017-04-03T11:21:03.480Z,375
2017-04-03T11:22:03.460Z,410
2017-04-03T11:23:03.156Z,400
2017-04-03T11:24:03.123Z,380
2017-04-03T11:25:03.422Z,375
2017-04-03T11:26:03.437Z,360
2017-04-03T11:27:03.401Z,360
2017-04-03T11:28:03.429Z,375
2017-04-03T11:29:03.392Z,405
2017-04-03T11:30:03.071Z,425
2017-04-03T11:31:03.048Z,430
2017-04-03T11:32:03.035Z,420
2017-04-03T11:33:03.048Z,435
2017-04-03T11:34:03.352Z,445
2017-04-03T11:35:03.376Z,465
2017-04-03T11:36:03.311Z,455
2017-04-03T11:37:02.989Z,455
2017-04-03T11:38:02.985Z,465
2017-04-03T11:39:02.976Z,480
2017-04-03T11:40:03.012Z,520
2017-04-03T11:41:03.264Z,585
2017-04-03T11:42:03.246Z,895
2017-04-03T11:43:03.241Z,615
2017-04-03T11:44:03.252Z,595
2017-04-03T11:45:03.216Z,830
2017-04-03T11:46:03.230Z,615
2017-04-03T11:47:03.251Z,640
2017-04-03T11:48:03.202Z,665
2017-04-03T11:49:02.878Z,700
2017-04-03T11:50:03.185Z,710
2017-04-03T11:51:02.867Z,835
2017-04-03T11:52:03.163Z,970
2017-04-03T11:53:02.543Z,905
2017-04-03T11:54:02.544Z,970
2017-04-03T11:55:03.188Z,860
2017-04-03T11:56:03.169Z,855
2017-04-03T11:57:03.173Z,915
2017-04-03T11:58:03.210Z,935
2017-04-03T11:59:02.793Z,2015
2017-04-03T12:00:03.248Z,2160
2017-04-03T12:01:03.101Z,1970
2017-04-03T12:02:02.770Z,2090
2017-04-03T12:03:02.453Z,2075
2017-04-03T12:04:03.112Z,2045
2017-04-03T12:05:02.782Z,2090
2017-04-03T12:06:02.754Z,2120
2017-04-03T12:07:03.070Z,2120
2017-04-03T12:08:03.057Z,2090
2017-04-03T12:09:02.753Z,2070
2017-04-03T12:10:03.057Z,2030
2017-04-03T12:11:03.059Z,2005
2017-04-03T12:12:02.738Z,2015
2017-04-03T12:13:03.043Z,1995
2017-04-03T12:14:03.044Z,1965
2017-04-03T12:15:03.038Z,1920
2017-04-03T12:16:03.039Z,1945
2017-04-03T12:17:02.717Z,1945
2017-04-03T12:18:02.719Z,2015
2017-04-03T12:19:03.037Z,2015
2017-04-03T12:20:02.730Z,2000
2017-04-03T12:21:03.026Z,1930
2017-04-03T12:22:02.725Z,1875
2017-04-03T12:23:03.031Z,1890
2017-04-03T12:24:03.041Z,1915
2017-04-03T12:25:03.031Z,1920
2017-04-03T12:26:03.104Z,1940
2017-04-03T12:27:03.050Z,1945
2017-04-03T12:28:02.721Z,1965
2017-04-03T12:29:03.021Z,1970
2017-04-03T12:30:03.032Z,1985
2017-04-03T12:31:03.026Z,1955
2017-04-03T12:32:03.087Z,1945
2017-04-03T12:33:03.031Z,1955
2017-04-03T12:34:03.069Z,1925
2017-04-03T12:35:02.751Z,1890
2017-04-03T12:36:03.044Z,1880
2017-04-03T12:37:02.763Z,1895
2017-04-03T12:38:03.049Z,1895
2017-04-03T12:39:02.724Z,1900
2017-04-03T12:40:03.039Z,1900
2017-04-03T12:41:03.051Z,1910
2017-04-03T12:42:03.138Z,1905
2017-04-03T12:43:02.750Z,1915
2017-04-03T12:44:03.098Z,1925
2017-04-03T12:45:03.056Z,1950
2017-04-03T12:46:02.996Z,1925
2017-04-03T12:47:02.741Z,1845
2017-04-03T12:48:03.056Z,1795
2017-04-03T12:49:02.453Z,1745
2017-04-03T12:50:03.057Z,1895
2017-04-03T12:51:02.812Z,1815
2017-04-03T12:52:02.751Z,1815
2017-04-03T12:53:02.478Z,1770
2017-04-03T12:54:03.069Z,1810
2017-04-03T12:55:03.157Z,1835
2017-04-03T12:56:03.062Z,1835
2017-04-03T12:57:03.073Z,1870
2017-04-03T12:58:02.762Z,1895
2017-04-03T12:59:03.077Z,1885
2017-04-03T13:00:03.078Z,1910
2017-04-03T13:01:03.089Z,1970
2017-04-03T13:02:03.076Z,2045
2017-04-03T13:03:03.284Z,2040
2017-04-03T13:04:02.771Z,1980
2017-04-03T13:05:02.772Z,1920
2017-04-03T13:06:03.091Z,1920
2017-04-03T13:07:03.085Z,1940
2017-04-03T13:08:03.094Z,1890
2017-04-03T13:09:03.133Z,1845
2017-04-03T13:10:03.097Z,1770
2017-04-03T13:11:03.103Z,1735
2017-04-03T13:12:02.790Z,1665
2017-04-03T13:13:03.106Z,1695
2017-04-03T13:14:02.796Z,1755
2017-04-03T13:15:02.813Z,1810
2017-04-03T13:16:02.494Z,1815
2017-04-03T13:17:02.815Z,1820
2017-04-03T13:18:03.128Z,1760
2017-04-03T13:19:03.125Z,1735
2017-04-03T13:20:03.123Z,1765
2017-04-03T13:21:02.544Z,1830
2017-04-03T13:22:02.865Z,1845
2017-04-03T13:23:03.124Z,1815
2017-04-03T13:24:03.125Z,1820
2017-04-03T13:25:03.128Z,1805
2017-04-03T13:26:03.131Z,1770
2017-04-03T13:27:02.577Z,1720
2017-04-03T13:28:02.824Z,1715
2017-04-03T13:29:02.836Z,1760
2017-04-03T13:30:02.815Z,1700
2017-04-03T13:31:03.156Z,1640
2017-04-03T13:32:03.146Z,1610
2017-04-03T13:33:03.137Z,1575
2017-04-03T13:34:02.828Z,1525
2017-04-03T13:35:03.145Z,1560
2017-04-03T13:36:03.147Z,1600
2017-04-03T13:37:02.830Z,1585
2017-04-03T13:38:03.141Z,1550
2017-04-03T13:39:03.147Z,1570
2017-04-03T13:40:03.249Z,1555
2017-04-03T13:41:03.144Z,1570
2017-04-03T13:42:03.149Z,1590
2017-04-03T13:43:02.833Z,1605
2017-04-03T13:44:03.156Z,1610
2017-04-03T13:45:02.839Z,1595
2017-04-03T13:46:03.218Z,1560
2017-04-03T13:47:03.163Z,1530
2017-04-03T13:48:03.171Z,1525
2017-04-03T13:49:03.162Z,1515
2017-04-03T13:50:03.164Z,1520
2017-04-03T13:51:03.186Z,1540
2017-04-03T13:52:03.175Z,1575
2017-04-03T13:53:03.175Z,1580
2017-04-03T13:54:03.163Z,1625
2017-04-03T13:55:03.175Z,1675
2017-04-03T13:56:03.179Z,1700
2017-04-03T13:57:02.877Z,1705
2017-04-03T13:58:02.898Z,1705
2017-04-03T13:59:03.277Z,1710
2017-04-03T14:00:03.199Z,1695
2017-04-03T14:01:02.947Z,1710
2017-04-03T14:02:03.193Z,1690
2017-04-03T14:03:02.878Z,1670
2017-04-03T14:04:02.885Z,1660
2017-04-03T14:05:03.187Z,1670
2017-04-03T14:06:03.189Z,1670
2017-04-03T14:07:02.882Z,1650
2017-04-03T14:08:02.895Z,1630
2017-04-03T14:09:02.885Z,1650
2017-04-03T14:10:03.339Z,1665